Time;durP1;ratioP1;P1;durP2;ratioP2;P2;SDS_P1;SDS_P2;PMS_P1;PMS_P2;Temp;Humidity;BMP_temperature;BMP_pressure;BME280_temperature;BME280_humidity;BME280_pressure;Samples;Min_cycle;Max_cycle;Signal;HPM_P1;HPM_P2
2022/07/18 00:11:04;;;;;;;6.30;2.50;;;;;;;14.41;100.00;101188.16;680883;1276;139008;-82
2022/07/18 00:26:07;;;;;;;3.60;2.70;;;;;;;14.38;100.00;101180.63;680994;1275;142751;-82
2022/07/18 00:41:14;;;;;;;15.10;6.30;;;;;;;14.22;100.00;101179.65;681026;1274;139548;-83
2022/07/18 00:56:19;;;;;;;16.40;6.70;;;;;;;14.19;100.00;101174.98;681161;1275;139647;-82
2022/07/18 01:11:23;;;;;;;8.00;3.80;;;;;;;14.02;100.00;101178.75;681235;1276;23443;-82
2022/07/18 01:26:27;;;;;;;6.50;3.30;;;;;;;13.77;100.00;101172.17;681284;1275;22500;-81
2022/07/18 01:41:31;;;;;;;5.60;3.60;;;;;;;13.66;100.00;101165.20;681290;1273;22552;-82
2022/07/18 01:56:34;;;;;;;3.40;3.10;;;;;;;13.47;100.00;101167.02;681216;1276;22412;-82
2022/07/18 02:11:37;;;;;;;8.60;3.70;;;;;;;13.10;100.00;101162.21;681252;1274;22445;-82
2022/07/18 02:26:41;;;;;;;3.30;2.90;;;;;;;13.07;100.00;101161.45;680970;1276;22533;-82
2022/07/18 02:41:44;;;;;;;4.90;3.40;;;;;;;12.88;100.00;101147.23;681365;1275;23282;-82
2022/07/18 02:56:47;;;;;;;7.60;3.00;;;;;;;12.91;100.00;101150.64;681236;1275;23270;-82
2022/07/18 03:11:50;;;;;;;9.10;4.00;;;;;;;13.18;100.00;101139.63;681122;1275;22540;-82
2022/07/18 03:26:54;;;;;;;15.20;5.90;;;;;;;13.32;100.00;101139.83;681117;1275;22478;-82
2022/07/18 03:41:57;;;;;;;7.20;4.00;;;;;;;13.48;100.00;101141.11;681394;1276;23294;-82
2022/07/18 03:57:00;;;;;;;6.50;3.50;;;;;;;13.60;100.00;101146.22;681202;1275;22495;-81
2022/07/18 04:12:04;;;;;;;8.50;4.30;;;;;;;14.00;100.00;101157.64;681340;1275;22670;-82
2022/07/18 04:27:07;;;;;;;9.50;4.60;;;;;;;14.45;100.00;101153.29;681315;1275;22527;-83
2022/07/18 04:42:10;;;;;;;8.60;4.30;;;;;;;14.99;100.00;101151.57;680991;1275;30837;-83
2022/07/18 04:57:14;;;;;;;17.50;5.80;;;;;;;15.51;100.00;101158.31;680971;1276;22528;-82
2022/07/18 05:12:18;;;;;;;11.00;4.50;;;;;;;15.98;100.00;101160.73;680970;1276;22431;-83
2022/07/18 05:27:21;;;;;;;9.30;3.90;;;;;;;16.59;100.00;101162.52;681019;1276;22416;-83
2022/07/18 05:42:25;;;;;;;6.40;3.40;;;;;;;17.07;100.00;101158.14;680991;1276;22480;-83
2022/07/18 05:57:49;;;;;;;7.80;3.40;;;;;;;17.62;100.00;101159.16;680869;1276;23307;-83
2022/07/18 06:12:54;;;;;;;5.90;3.70;;;;;;;18.16;100.00;101161.51;680342;1275;139875;-84
2022/07/18 06:27:57;;;;;;;73.50;8.00;;;;;;;18.80;100.00;101161.00;680586;1276;139912;-82
2022/07/18 06:43:00;;;;;;;7.90;2.80;;;;;;;19.50;100.00;101159.54;681001;1274;139148;-83
2022/07/18 07:07:47;;;;;;;7.20;3.30;;;;;;;20.09;98.32;101152.83;638973;1313;545959;-82
2022/07/18 07:22:56;;;;;;;5.70;2.40;;;;;;;20.80;92.76;101132.28;653108;1289;140303;-83
2022/07/18 07:38:01;;;;;;;8.80;2.60;;;;;;;21.67;88.45;101127.98;651640;1287;139262;-84
2022/07/18 07:53:04;;;;;;;3.90;2.50;;;;;;;22.53;84.25;101131.27;653034;1290;138609;-82
2022/07/18 08:08:07;;;;;;;8.00;2.50;;;;;;;22.93;79.89;101128.17;651434;1289;139235;-82
2022/07/18 08:23:11;;;;;;;5.40;2.50;;;;;;;23.29;77.65;101128.92;649365;1290;138729;-82
2022/07/18 08:38:16;;;;;;;5.10;2.10;;;;;;;23.58;75.33;101134.65;649819;1290;139001;-84
2022/07/18 08:53:20;;;;;;;6.40;2.10;;;;;;;24.12;71.84;101135.63;649232;1289;138061;-84
2022/07/18 09:08:23;;;;;;;4.70;2.10;;;;;;;24.57;69.25;101128.30;650798;1289;137410;-83
2022/07/18 09:23:29;;;;;;;5.00;2.40;;;;;;;24.98;67.93;101130.79;649040;1290;138016;-83
2022/07/18 09:38:32;;;;;;;3.80;2.50;;;;;;;24.25;68.56;101132.56;649180;1290;137474;-82
2022/07/18 09:53:43;;;;;;;7.50;2.80;;;;;;;23.76;68.84;101142.45;650572;1290;137969;-83
2022/07/18 10:08:48;;;;;;;3.30;2.40;;;;;;;24.10;68.04;101138.05;651090;1289;138014;-84
2022/07/18 10:23:53;;;;;;;5.30;2.70;;;;;;;23.79;69.68;101142.58;651338;1289;138149;-83
2022/07/18 10:39:14;;;;;;;11.60;2.70;;;;;;;24.06;70.72;101134.46;651720;1290;138884;-83
2022/07/18 10:54:18;;;;;;;6.10;2.60;;;;;;;24.16;70.24;101127.58;653218;1289;139540;-85
2022/07/18 11:09:42;;;;;;;22.50;4.10;;;;;;;24.75;68.73;101129.81;652194;1287;139514;-84
2022/07/18 11:24:48;;;;;;;7.90;3.30;;;;;;;24.88;66.94;101123.52;652412;1289;139262;-87
2022/07/18 11:39:52;;;;;;;4.70;2.40;;;;;;;25.02;65.83;101117.45;649292;1289;139632;-85
2022/07/18 11:54:56;;;;;;;4.50;2.20;;;;;;;24.87;63.97;101110.27;649156;1289;139308;-87
2022/07/18 12:10:17;;;;;;;5.20;2.10;;;;;;;24.92;63.58;101101.91;648652;1289;138730;-81
2022/07/18 12:25:21;;;;;;;4.60;1.90;;;;;;;24.76;63.38;101096.33;648887;1289;139644;-81
2022/07/18 12:40:47;;;;;;;3.60;2.30;;;;;;;25.23;62.91;101081.95;649123;1289;140156;-81
2022/07/18 12:55:51;;;;;;;7.40;2.90;;;;;;;25.25;62.76;101080.74;649108;1287;138778;-81
2022/07/18 13:10:55;;;;;;;5.50;2.60;;;;;;;25.36;61.77;101075.29;650282;1287;138847;-81
2022/07/18 13:25:59;;;;;;;3.30;2.50;;;;;;;25.48;61.01;101072.95;651204;1289;139617;-79
2022/07/18 13:41:03;;;;;;;3.50;2.00;;;;;;;24.99;62.07;101062.80;651529;1289;139546;-80
2022/07/18 13:56:07;;;;;;;7.10;2.60;;;;;;;25.86;61.74;101057.84;649067;1289;141752;-81
2022/07/18 14:11:10;;;;;;;4.90;2.20;;;;;;;26.88;60.31;101055.39;648743;1288;138507;-79
2022/07/18 14:26:14;;;;;;;7.60;2.90;;;;;;;26.49;61.24;101053.63;649945;1289;140105;-81
2022/07/18 14:41:19;;;;;;;3.70;3.10;;;;;;;27.10;61.05;101053.05;649729;1289;138351;-80
2022/07/18 14:56:25;;;;;;;4.40;2.40;;;;;;;27.82;60.17;101029.07;651373;1287;139374;-79
2022/07/18 15:11:29;;;;;;;6.20;3.10;;;;;;;27.23;60.50;101032.58;649875;1289;139109;-79
2022/07/18 15:26:32;;;;;;;4.10;2.80;;;;;;;26.32;62.02;101023.59;649905;1287;138448;-80
2022/07/18 15:41:36;;;;;;;6.10;3.20;;;;;;;26.06;63.76;101021.27;649910;1287;139233;-80
2022/07/18 15:56:40;;;;;;;4.10;2.60;;;;;;;26.13;64.69;101021.41;649658;1287;139312;-80
2022/07/18 16:11:44;;;;;;;7.00;2.60;;;;;;;25.57;66.38;101020.00;649850;1287;139300;-86
2022/07/18 16:26:47;;;;;;;4.80;2.60;;;;;;;24.97;67.75;101020.09;650054;1287;138938;-88
2022/07/18 16:41:51;;;;;;;4.60;2.80;;;;;;;24.59;69.38;101031.23;650894;1286;138000;-87
2022/07/18 16:57:03;;;;;;;5.00;3.00;;;;;;;23.45;74.88;101051.25;651397;1287;139678;-90
2022/07/18 17:12:07;;;;;;;8.80;5.30;;;;;;;22.83;80.21;101035.92;656720;1280;139182;-88
2022/07/18 17:27:12;;;;;;;27.20;13.10;;;;;;;22.50;85.18;101032.67;656220;1280;139644;-88
2022/07/18 17:42:17;;;;;;;9.70;6.60;;;;;;;22.09;88.05;101025.09;657668;1282;139172;-88
2022/07/18 17:57:21;;;;;;;6.40;3.60;;;;;;;21.98;90.46;101024.46;657420;1283;140200;-88
2022/07/18 18:12:25;;;;;;;9.10;6.20;;;;;;;21.85;93.37;101019.09;657427;1280;139374;-88
2022/07/18 18:27:29;;;;;;;23.20;13.80;;;;;;;21.85;95.15;101002.42;655351;1282;140818;-90
2022/07/18 18:42:32;;;;;;;16.90;11.00;;;;;;;21.82;96.28;101002.80;656113;1282;139603;-88
2022/07/18 18:57:37;;;;;;;16.40;8.90;;;;;;;21.19;97.49;100991.27;655159;1282;140649;-88
2022/07/18 19:12:41;;;;;;;19.20;9.80;;;;;;;21.14;99.74;100993.30;655509;1279;317795;-90
2022/07/18 19:27:45;;;;;;;14.40;9.00;;;;;;;21.15;100.00;100986.63;655338;1280;140231;-89
2022/07/18 19:42:49;;;;;;;17.30;11.20;;;;;;;21.09;100.00;100975.88;655002;1280;140921;-88
2022/07/18 19:57:52;;;;;;;12.80;9.20;;;;;;;20.88;100.00;100975.41;655699;1280;140039;-87
2022/07/18 20:12:56;;;;;;;10.20;6.70;;;;;;;20.72;100.00;100978.79;657057;1279;139972;-88
2022/07/18 20:28:02;;;;;;;8.80;6.20;;;;;;;20.43;100.00;100982.41;656864;1280;139861;-85
2022/07/18 20:43:06;;;;;;;7.70;6.90;;;;;;;20.33;100.00;100977.34;656627;1280;140038;-88
2022/07/18 20:58:09;;;;;;;6.20;4.30;;;;;;;20.39;100.00;100973.11;656179;1279;139795;-88
2022/07/18 21:13:13;;;;;;;12.30;8.10;;;;;;;20.30;100.00;100969.77;655851;1280;140265;-88
2022/07/18 21:28:17;;;;;;;6.70;4.40;;;;;;;20.29;100.00;100963.11;657763;1280;140758;-89
2022/07/18 21:43:21;;;;;;;5.50;4.50;;;;;;;20.22;100.00;100961.05;657408;1278;140692;-89
2022/07/18 21:58:24;;;;;;;13.50;8.30;;;;;;;20.27;100.00;100966.29;656078;1278;138740;-88
2022/07/18 22:13:28;;;;;;;10.20;6.10;;;;;;;20.17;100.00;100964.70;656946;1280;139328;-87
2022/07/18 22:28:31;;;;;;;9.90;5.90;;;;;;;20.09;100.00;100961.23;655688;1277;139486;-85
2022/07/18 22:43:34;;;;;;;8.50;5.50;;;;;;;19.95;100.00;100958.41;657434;1277;140771;-89
2022/07/18 22:58:37;;;;;;;10.90;6.20;;;;;;;19.81;100.00;100953.23;657528;1277;139050;-87
2022/07/18 23:13:41;;;;;;;12.40;7.60;;;;;;;19.74;100.00;100948.59;656980;1277;140395;-89
2022/07/18 23:28:45;;;;;;;9.60;6.00;;;;;;;19.64;100.00;100939.42;658136;1277;140658;-88
2022/07/18 23:43:48;;;;;;;9.60;5.70;;;;;;;19.69;100.00;100937.45;656277;1277;138832;-88
2022/07/18 23:58:52;;;;;;;11.50;6.50;;;;;;;19.73;100.00;100942.62;657357;1277;140052;-87
